createdAt,value
2019-05-13T00:02:26.895Z,12.19
2019-05-13T00:04:58.314Z,11.99
2019-05-13T00:07:28.896Z,11.98
2019-05-13T00:09:59.462Z,11.92
2019-05-13T00:12:30.032Z,11.71
2019-05-13T00:15:00.612Z,11.84
2019-05-13T00:17:33.646Z,11.93
2019-05-13T00:20:04.608Z,11.85
2019-05-13T00:22:35.173Z,12.07
2019-05-13T00:25:07.360Z,12.16
2019-05-13T00:27:38.031Z,12.24
2019-05-13T00:30:09.142Z,12.14
2019-05-13T00:32:39.714Z,11.91
2019-05-13T00:35:11.456Z,12.11
2019-05-13T00:37:44.389Z,11.82
2019-05-13T00:40:15.142Z,11.70
2019-05-13T00:42:45.722Z,12.02
2019-05-13T00:45:16.406Z,12.05
2019-05-13T00:47:46.984Z,12.13
2019-05-13T00:50:17.552Z,12.16
2019-05-13T00:52:53.478Z,11.92
2019-05-13T00:55:23.849Z,12.04
2019-05-13T00:57:54.479Z,11.77
2019-05-13T01:00:25.061Z,11.47
2019-05-13T01:02:55.639Z,11.64
2019-05-13T01:05:26.210Z,11.67
2019-05-13T01:07:56.805Z,11.63
2019-05-13T01:10:27.419Z,11.54
2019-05-13T01:12:57.987Z,11.75
2019-05-13T01:15:28.552Z,11.65
2019-05-13T01:17:59.378Z,11.73
2019-05-13T01:20:29.958Z,11.72
2019-05-13T01:23:00.520Z,11.96
2019-05-13T01:25:33.476Z,11.98
2019-05-13T01:28:04.513Z,12.01
2019-05-13T01:30:35.606Z,11.99
2019-05-13T01:33:06.190Z,12.18
2019-05-13T01:35:38.252Z,12.13
2019-05-13T01:38:08.873Z,12.28
2019-05-13T01:40:39.427Z,12.39
2019-05-13T01:43:10.021Z,12.35
2019-05-13T01:45:40.600Z,12.48
2019-05-13T01:48:13.868Z,12.50
2019-05-13T01:50:44.487Z,12.30
2019-05-13T01:53:15.337Z,12.30
2019-05-13T01:55:45.895Z,12.31
2019-05-13T01:58:16.597Z,12.39
2019-05-13T02:00:47.165Z,12.39
2019-05-13T02:03:17.760Z,12.26
2019-05-13T02:05:48.318Z,12.37
2019-05-13T02:08:18.918Z,12.39
2019-05-13T02:10:56.896Z,12.33
2019-05-13T02:13:27.477Z,12.25
2019-05-13T02:15:58.086Z,11.99
2019-05-13T02:18:28.663Z,12.14
2019-05-13T02:20:59.245Z,12.08
2019-05-13T02:23:29.827Z,12.26
2019-05-13T02:26:04.230Z,12.34
2019-05-13T02:28:34.083Z,12.34
2019-05-13T02:31:04.648Z,12.36
2019-05-13T02:33:35.231Z,12.35
2019-05-13T02:36:05.793Z,12.31
2019-05-13T02:38:36.358Z,12.25
2019-05-13T02:41:07.115Z,12.19
2019-05-13T02:43:41.171Z,12.13
2019-05-13T02:46:12.875Z,12.09
2019-05-13T02:48:42.584Z,12.12
2019-05-13T02:51:13.299Z,12.05
2019-05-13T02:53:43.952Z,12.06
2019-05-13T02:56:14.524Z,12.04
2019-05-13T02:58:45.091Z,12.09
2019-05-13T03:01:16.451Z,11.87
2019-05-13T03:03:46.999Z,12.00
2019-05-13T03:06:17.577Z,11.84
2019-05-13T03:08:50.276Z,11.84
2019-05-13T03:11:22.736Z,11.70
2019-05-13T03:13:53.229Z,11.67
2019-05-13T03:16:32.704Z,11.61
2019-05-13T03:19:03.458Z,11.65
2019-05-13T03:21:34.036Z,11.63
2019-05-13T03:24:04.806Z,11.72
2019-05-13T03:26:36.424Z,11.83
2019-05-13T03:29:06.982Z,11.79
2019-05-13T03:31:37.574Z,11.76
2019-05-13T03:34:08.168Z,11.76
2019-05-13T03:36:45.115Z,11.75
2019-05-13T03:39:16.409Z,11.55
2019-05-13T03:41:48.123Z,11.70
2019-05-13T03:44:23.677Z,11.68
2019-05-13T03:46:56.489Z,11.67
2019-05-13T03:49:32.342Z,11.49
2019-05-13T03:52:03.047Z,11.76
2019-05-13T03:54:34.410Z,11.86
2019-05-13T03:57:05.438Z,11.70
2019-05-13T03:59:36.377Z,11.79
2019-05-13T04:02:07.029Z,11.86
2019-05-13T04:04:37.662Z,11.85
2019-05-13T04:07:08.226Z,11.96
2019-05-13T04:09:42.124Z,11.91
2019-05-13T04:12:13.507Z,12.02
2019-05-13T04:14:43.869Z,12.06
2019-05-13T04:17:15.173Z,11.98
2019-05-13T04:19:45.849Z,12.00
2019-05-13T04:22:16.453Z,12.09
2019-05-13T04:24:47.069Z,12.20
2019-05-13T04:27:17.998Z,12.22
2019-05-13T04:29:48.569Z,12.16
2019-05-13T04:32:19.132Z,12.36
2019-05-13T04:34:52.660Z,12.36
2019-05-13T04:37:22.462Z,12.56
2019-05-13T04:39:56.295Z,12.57
2019-05-13T04:42:25.486Z,12.80
2019-05-13T04:44:56.213Z,12.89
2019-05-13T04:47:26.862Z,12.53
2019-05-13T04:49:57.431Z,11.86
2019-05-13T04:52:28.350Z,11.35
2019-05-13T04:54:58.969Z,11.25
2019-05-13T04:57:32.965Z,10.75
2019-05-13T05:00:04.138Z,11.03
2019-05-13T05:02:53.997Z,11.34
2019-05-13T05:05:42.063Z,11.35
2019-05-13T05:08:35.812Z,11.87
2019-05-13T05:11:33.609Z,12.19
2019-05-13T05:14:15.968Z,12.04
2019-05-13T05:17:12.320Z,12.42
2019-05-13T05:20:13.269Z,12.18
2019-05-13T05:23:21.276Z,12.37
2019-05-13T05:26:28.129Z,12.44
2019-05-13T05:29:05.067Z,12.72
2019-05-13T05:31:41.559Z,13.02
2019-05-13T05:34:34.923Z,12.29
2019-05-13T05:37:28.290Z,12.10
2019-05-13T05:40:02.009Z,12.28
2019-05-13T05:42:34.639Z,12.35
2019-05-13T05:45:06.759Z,12.98
2019-05-13T05:47:41.752Z,13.58
2019-05-13T05:50:12.265Z,13.19
2019-05-13T05:52:46.023Z,12.63
2019-05-13T05:55:16.611Z,13.03
2019-05-13T05:57:47.876Z,13.26
2019-05-13T06:00:22.002Z,13.56
2019-05-13T06:02:54.547Z,14.12
2019-05-13T06:05:26.433Z,13.99
2019-05-13T06:07:57.009Z,13.50
2019-05-13T06:10:27.925Z,13.90
2019-05-13T06:13:01.823Z,13.68
2019-05-13T06:15:33.279Z,13.87
2019-05-13T06:18:03.862Z,14.27
2019-05-13T06:20:34.527Z,14.27
2019-05-13T06:23:05.106Z,14.50
2019-05-13T06:25:35.654Z,14.82
2019-05-13T06:28:06.383Z,14.92
2019-05-13T06:30:37.018Z,14.97
2019-05-13T06:33:07.594Z,14.27
2019-05-13T06:35:41.520Z,13.68
2019-05-13T06:38:11.838Z,14.47
2019-05-13T06:40:42.606Z,14.49
2019-05-13T06:43:13.141Z,14.75
2019-05-13T06:45:43.722Z,13.95
2019-05-13T06:48:14.305Z,13.78
2019-05-13T06:50:44.889Z,13.08
2019-05-13T06:53:15.568Z,12.93
2019-05-13T06:55:46.119Z,12.23
2019-05-13T06:58:16.709Z,12.11
2019-05-13T07:00:47.410Z,12.49
2019-05-13T07:03:17.987Z,12.37
2019-05-13T07:05:48.864Z,12.33
2019-05-13T07:08:19.430Z,12.51
2019-05-13T07:10:51.545Z,12.14
2019-05-13T07:13:22.359Z,12.17
2019-05-13T07:15:52.922Z,12.03
2019-05-13T07:18:23.474Z,12.04
2019-05-13T07:20:54.559Z,12.22
2019-05-13T07:23:25.116Z,12.57
2019-05-13T07:25:55.687Z,12.13
2019-05-13T07:28:26.236Z,12.34
2019-05-13T07:30:56.813Z,12.58
2019-05-13T07:33:27.462Z,13.09
2019-05-13T07:35:58.828Z,13.26
2019-05-13T07:38:32.213Z,13.28
2019-05-13T07:41:03.968Z,13.40
2019-05-13T07:43:34.531Z,14.09
2019-05-13T07:46:05.252Z,13.49
2019-05-13T07:48:35.832Z,13.83
2019-05-13T07:51:06.530Z,12.85
2019-05-13T07:53:37.072Z,12.48
2019-05-13T07:56:07.645Z,12.27
2019-05-13T07:58:38.205Z,12.67
2019-05-13T08:01:12.016Z,13.20
2019-05-13T08:03:42.135Z,13.62
2019-05-13T08:06:13.023Z,13.51
2019-05-13T08:08:44.598Z,13.77
2019-05-13T08:11:15.150Z,13.82
2019-05-13T08:13:45.729Z,13.39
2019-05-13T08:16:16.389Z,13.69
2019-05-13T08:18:46.945Z,13.77
2019-05-13T08:21:17.533Z,13.34
2019-05-13T08:23:48.138Z,13.20
2019-05-13T08:26:18.710Z,13.27
2019-05-13T08:28:57.989Z,13.58
2019-05-13T08:31:21.821Z,13.60
2019-05-13T08:33:52.501Z,13.74
2019-05-13T08:36:23.606Z,13.90
2019-05-13T08:38:55.288Z,13.79
2019-05-13T08:41:25.886Z,13.64
2019-05-13T08:43:56.731Z,14.70
2019-05-13T08:46:27.326Z,15.33
2019-05-13T08:48:58.057Z,15.12
2019-05-13T08:51:31.355Z,14.96
2019-05-13T08:54:02.602Z,14.53
2019-05-13T08:56:33.178Z,14.42
2019-05-13T08:59:03.726Z,14.23
2019-05-13T09:01:34.287Z,14.50
2019-05-13T09:04:04.867Z,14.94
2019-05-13T09:06:36.015Z,14.77
2019-05-13T09:09:11.494Z,14.44
2019-05-13T09:11:42.299Z,14.49
2019-05-13T09:14:12.900Z,14.48
2019-05-13T09:16:44.212Z,15.65
2019-05-13T09:19:16.290Z,15.60
2019-05-13T09:21:48.043Z,15.75
2019-05-13T09:24:26.121Z,15.42
2019-05-13T09:26:52.719Z,15.46
2019-05-13T09:29:23.421Z,14.48
2019-05-13T09:31:54.000Z,14.39
2019-05-13T09:34:24.566Z,15.26
2019-05-13T09:36:55.235Z,16.07
2019-05-13T09:39:27.274Z,16.87
2019-05-13T09:41:57.840Z,16.81
2019-05-13T09:44:28.411Z,16.54
2019-05-13T09:47:02.208Z,17.45
2019-05-13T09:49:33.012Z,17.03
2019-05-13T09:52:04.017Z,17.00
2019-05-13T09:54:34.581Z,16.43
2019-05-13T09:57:05.251Z,16.65
2019-05-13T09:59:35.938Z,17.27
2019-05-13T10:02:06.648Z,17.40
2019-05-13T10:04:37.328Z,17.65
2019-05-13T10:07:08.189Z,18.49
2019-05-13T10:09:38.773Z,18.06
2019-05-13T10:12:12.154Z,17.02
2019-05-13T10:14:41.800Z,16.21
2019-05-13T10:17:13.248Z,16.31
2019-05-13T10:19:43.983Z,16.71
2019-05-13T10:22:14.539Z,16.61
2019-05-13T10:24:45.173Z,15.83
2019-05-13T10:27:18.791Z,15.34
2019-05-13T10:29:48.615Z,15.13
2019-05-13T10:32:21.745Z,15.46
2019-05-13T10:34:53.540Z,15.70
2019-05-13T10:37:24.135Z,16.07
2019-05-13T10:39:54.843Z,15.01
2019-05-13T10:42:25.533Z,15.79
2019-05-13T10:44:56.371Z,15.44
2019-05-13T10:47:26.941Z,15.23
2019-05-13T10:49:57.527Z,14.70
2019-05-13T10:52:28.106Z,14.64
2019-05-13T10:54:58.864Z,14.70
2019-05-13T10:57:31.895Z,15.41
2019-05-13T11:00:03.608Z,15.85
2019-05-13T11:02:35.892Z,15.98
2019-05-13T11:05:07.125Z,16.25
2019-05-13T11:07:37.694Z,15.95
2019-05-13T11:10:08.607Z,15.35
2019-05-13T11:12:41.725Z,14.90
2019-05-13T11:15:11.604Z,14.35
2019-05-13T11:17:42.813Z,14.20
2019-05-13T11:20:13.512Z,14.05
2019-05-13T11:22:44.091Z,14.40
2019-05-13T11:25:14.917Z,15.37
2019-05-13T11:27:45.550Z,15.54
2019-05-13T11:30:16.488Z,16.32
2019-05-13T11:32:47.144Z,15.46
2019-05-13T11:35:17.706Z,15.42
2019-05-13T11:37:48.281Z,16.40
2019-05-13T11:40:19.201Z,16.47
2019-05-13T11:42:52.167Z,16.99
2019-05-13T11:45:22.527Z,17.18
2019-05-13T11:47:53.082Z,17.19
2019-05-13T11:50:23.944Z,16.98
2019-05-13T11:52:55.779Z,16.54
2019-05-13T11:55:26.358Z,15.98
2019-05-13T11:57:56.923Z,15.44
2019-05-13T12:00:48.439Z,15.03
2019-05-13T12:03:22.698Z,15.24
2019-05-13T12:05:53.774Z,15.81
2019-05-13T12:08:24.725Z,15.84
2019-05-13T12:10:55.416Z,15.93
2019-05-13T12:13:26.323Z,16.43
2019-05-13T12:15:58.761Z,16.10
2019-05-13T12:18:29.332Z,16.61
2019-05-13T12:21:03.376Z,16.89
2019-05-13T12:23:32.413Z,16.93
2019-05-13T12:26:04.357Z,16.28
2019-05-13T12:28:35.456Z,16.37
2019-05-13T12:31:06.031Z,16.66
2019-05-13T12:33:36.612Z,16.38
2019-05-13T12:36:07.243Z,17.03
2019-05-13T12:38:37.817Z,17.34
2019-05-13T12:41:08.692Z,17.29
2019-05-13T12:43:42.324Z,17.09
2019-05-13T12:46:12.526Z,17.06
2019-05-13T12:48:43.218Z,16.20
2019-05-13T12:51:13.825Z,15.88
2019-05-13T12:53:45.271Z,15.06
2019-05-13T12:56:15.878Z,14.95
2019-05-13T12:58:46.450Z,15.15
2019-05-13T13:01:17.032Z,15.25
2019-05-13T13:03:47.594Z,15.05
2019-05-13T13:06:31.301Z,15.23
2019-05-13T13:08:50.920Z,14.90
2019-05-13T13:11:22.788Z,14.85
2019-05-13T13:13:59.611Z,14.93
2019-05-13T13:16:34.016Z,14.65
2019-05-13T13:18:58.239Z,14.88
2019-05-13T13:21:34.329Z,14.72
2019-05-13T13:24:04.475Z,14.70
2019-05-13T13:26:33.774Z,14.97
2019-05-13T13:29:05.681Z,14.98
2019-05-13T13:31:36.370Z,14.83
2019-05-13T13:34:12.500Z,14.76
2019-05-13T13:36:39.213Z,14.78
2019-05-13T13:39:13.750Z,14.75
2019-05-13T13:41:43.772Z,14.64
2019-05-13T13:44:15.772Z,14.26
2019-05-13T13:46:49.317Z,14.37
2019-05-13T13:49:22.724Z,13.60
2019-05-13T13:51:50.965Z,13.01
2019-05-13T13:54:22.486Z,13.14
2019-05-13T13:56:56.234Z,12.46
2019-05-13T13:59:26.884Z,12.66
2019-05-13T14:01:57.455Z,12.42
2019-05-13T14:04:28.420Z,12.41
2019-05-13T14:07:22.185Z,12.39
2019-05-13T14:09:33.427Z,12.59
2019-05-13T14:12:04.134Z,12.68
2019-05-13T14:14:34.714Z,13.03
2019-05-13T14:17:06.969Z,12.95
2019-05-13T14:19:38.443Z,13.28
2019-05-13T14:22:08.984Z,13.43
2019-05-13T14:24:42.297Z,13.80
2019-05-13T14:27:12.249Z,14.25
2019-05-13T14:29:49.098Z,14.24
2019-05-13T14:32:15.920Z,14.51
2019-05-13T14:34:46.506Z,15.07
2019-05-13T14:37:17.174Z,15.72
2019-05-13T14:39:48.126Z,16.02
2019-05-13T14:42:18.722Z,16.12
2019-05-13T14:44:51.902Z,15.84
2019-05-13T14:47:22.401Z,16.00
2019-05-13T14:49:55.190Z,16.16
2019-05-13T14:52:26.065Z,15.75
2019-05-13T14:54:56.645Z,15.48
2019-05-13T14:57:27.334Z,15.67
2019-05-13T14:59:57.903Z,15.51
2019-05-13T15:02:28.485Z,15.42
2019-05-13T15:04:59.244Z,15.74
2019-05-13T15:07:32.179Z,15.59
2019-05-13T15:10:04.715Z,15.39
2019-05-13T15:12:36.365Z,15.08
2019-05-13T15:15:12.756Z,14.81
2019-05-13T15:17:42.982Z,14.53
2019-05-13T15:20:13.927Z,14.07
2019-05-13T15:22:44.523Z,13.86
2019-05-13T15:25:15.406Z,13.78
2019-05-13T15:27:47.716Z,13.67
2019-05-13T15:30:18.648Z,13.57
2019-05-13T15:32:49.279Z,13.50
2019-05-13T15:35:25.213Z,13.61
2019-05-13T15:37:56.440Z,13.67
2019-05-13T15:40:27.015Z,13.77
2019-05-13T15:42:57.595Z,13.87
2019-05-13T15:45:28.170Z,14.08
2019-05-13T15:47:58.571Z,13.93
2019-05-13T15:50:31.301Z,13.47
2019-05-13T15:53:02.897Z,13.14
2019-05-13T15:55:33.581Z,12.97
2019-05-13T15:58:04.187Z,12.79
2019-05-13T16:00:36.202Z,12.77
2019-05-13T16:03:06.807Z,12.65
2019-05-13T16:05:37.394Z,12.50
2019-05-13T16:08:07.993Z,12.80
2019-05-13T16:10:38.656Z,13.08
2019-05-13T16:13:11.656Z,13.44
2019-05-13T16:15:41.750Z,13.79
2019-05-13T16:18:12.437Z,13.89
2019-05-13T16:20:45.338Z,13.85
2019-05-13T16:23:15.397Z,13.97
2019-05-13T16:25:46.006Z,13.91
2019-05-13T16:28:17.503Z,14.02
2019-05-13T16:30:48.263Z,14.05
2019-05-13T16:33:18.914Z,13.88
2019-05-13T16:35:51.735Z,13.77
2019-05-13T16:38:22.117Z,13.53
2019-05-13T16:40:54.162Z,13.24
2019-05-13T16:43:25.848Z,13.15
2019-05-13T16:45:56.608Z,12.99
2019-05-13T16:48:27.240Z,12.98
2019-05-13T16:50:58.366Z,13.04
2019-05-13T16:53:31.390Z,12.97
2019-05-13T16:56:01.953Z,13.16
2019-05-13T16:58:32.769Z,13.31
2019-05-13T17:01:03.324Z,13.34
2019-05-13T17:03:33.957Z,13.67
2019-05-13T17:06:05.828Z,13.85
2019-05-13T17:08:36.416Z,13.70
2019-05-13T17:11:06.995Z,13.67
2019-05-13T17:13:37.574Z,13.86
2019-05-13T17:16:08.176Z,13.96
2019-05-13T17:18:38.784Z,14.08
2019-05-13T17:21:11.101Z,13.89
2019-05-13T17:23:43.196Z,13.41
2019-05-13T17:26:15.005Z,13.08
2019-05-13T17:28:45.600Z,13.30
2019-05-13T17:31:16.168Z,13.18
2019-05-13T17:33:46.808Z,13.04
2019-05-13T17:36:17.427Z,13.06
2019-05-13T17:38:48.008Z,12.98
2019-05-13T17:41:18.591Z,12.87
2019-05-13T17:43:49.151Z,12.70
2019-05-13T17:46:21.898Z,12.57
2019-05-13T17:48:52.492Z,12.49
2019-05-13T17:51:23.096Z,12.21
2019-05-13T17:53:53.751Z,12.36
2019-05-13T17:56:24.385Z,12.38
2019-05-13T17:58:54.965Z,12.44
2019-05-13T18:01:25.637Z,12.66
2019-05-13T18:03:56.855Z,12.90
2019-05-13T18:06:27.979Z,12.76
2019-05-13T18:09:01.070Z,12.62
2019-05-13T18:11:31.747Z,12.75
2019-05-13T18:14:02.431Z,12.78
2019-05-13T18:16:33.091Z,12.71
2019-05-13T18:19:03.851Z,12.72
2019-05-13T18:21:35.943Z,12.62
2019-05-13T18:24:06.620Z,12.70
2019-05-13T18:26:37.888Z,12.68
2019-05-13T18:29:11.951Z,12.95
2019-05-13T18:31:42.520Z,12.88
2019-05-13T18:34:13.197Z,12.88
2019-05-13T18:36:47.430Z,12.92
2019-05-13T18:39:18.127Z,12.76
2019-05-13T18:41:48.804Z,12.75
2019-05-13T18:44:19.504Z,12.80
2019-05-13T18:46:52.356Z,12.55
2019-05-13T18:49:23.856Z,12.74
2019-05-13T18:51:54.471Z,12.67
2019-05-13T18:54:25.126Z,12.64
2019-05-13T18:56:55.711Z,12.54
2019-05-13T18:59:26.281Z,12.63
2019-05-13T19:02:01.039Z,12.81
2019-05-13T19:04:31.559Z,12.71
2019-05-13T19:07:03.202Z,12.33
2019-05-13T19:09:33.790Z,12.41
2019-05-13T19:12:04.448Z,12.62
2019-05-13T19:14:35.573Z,12.55
2019-05-13T19:17:06.211Z,12.55
2019-05-13T19:19:36.798Z,12.50
2019-05-13T19:22:07.385Z,12.39
2019-05-13T19:24:37.985Z,12.35
2019-05-13T19:27:09.173Z,12.49
2019-05-13T19:29:42.574Z,12.60
2019-05-13T19:32:13.604Z,12.62
2019-05-13T19:34:45.100Z,12.61
2019-05-13T19:37:16.537Z,12.35
2019-05-13T19:39:47.647Z,12.29
2019-05-13T19:42:19.114Z,12.21
2019-05-13T19:44:51.193Z,12.24
2019-05-13T19:47:23.858Z,12.18
2019-05-13T19:49:55.312Z,12.14
2019-05-13T19:52:26.682Z,12.16
2019-05-13T19:54:57.601Z,12.08
2019-05-13T19:57:31.755Z,12.05
2019-05-13T20:00:03.851Z,12.03
2019-05-13T20:02:35.679Z,11.73
2019-05-13T20:05:09.484Z,11.74
2019-05-13T20:07:42.004Z,11.82
2019-05-13T20:10:14.692Z,11.86
2019-05-13T20:12:45.455Z,11.77
2019-05-13T20:15:17.428Z,11.79
2019-05-13T20:17:48.758Z,11.84
2019-05-13T20:20:21.290Z,11.66
2019-05-13T20:22:52.155Z,11.65
2019-05-13T20:25:22.818Z,11.56
2019-05-13T20:27:53.887Z,11.33
2019-05-13T20:30:25.940Z,11.33
2019-05-13T20:32:56.537Z,10.94
2019-05-13T20:35:28.302Z,11.07
2019-05-13T20:37:58.908Z,11.16
2019-05-13T20:40:32.127Z,11.07
2019-05-13T20:43:02.515Z,11.07
2019-05-13T20:45:33.499Z,11.01
2019-05-13T20:48:05.509Z,11.01
2019-05-13T20:50:38.185Z,11.04
2019-05-13T20:53:11.554Z,11.09
2019-05-13T20:55:41.967Z,11.08
2019-05-13T20:58:13.496Z,11.00
2019-05-13T21:00:45.080Z,11.03
2019-05-13T21:03:15.653Z,10.86
2019-05-13T21:05:46.248Z,10.77
2019-05-13T21:08:16.879Z,10.86
2019-05-13T21:10:47.486Z,10.90
2019-05-13T21:13:18.553Z,10.80
2019-05-13T21:15:51.634Z,10.78
2019-05-13T21:18:22.158Z,10.75
2019-05-13T21:20:53.084Z,10.77
2019-05-13T21:23:23.866Z,10.73
2019-05-13T21:25:54.449Z,10.75
2019-05-13T21:28:25.007Z,10.75
2019-05-13T21:30:55.610Z,10.57
2019-05-13T21:33:26.212Z,10.64
2019-05-13T21:35:56.770Z,10.74
2019-05-13T21:38:27.361Z,10.63
2019-05-13T21:40:57.954Z,10.67
2019-05-13T21:43:28.538Z,10.53
2019-05-13T21:46:01.736Z,10.48
2019-05-13T21:48:32.419Z,10.39
2019-05-13T21:51:03.707Z,10.29
2019-05-13T21:53:34.287Z,10.15
2019-05-13T21:56:05.302Z,10.23
2019-05-13T21:58:35.912Z,10.15
2019-05-13T22:01:06.487Z,9.99
2019-05-13T22:03:37.078Z,10.09
2019-05-13T22:06:07.653Z,10.08
2019-05-13T22:08:38.279Z,10.15
2019-05-13T22:11:08.888Z,10.07
2019-05-13T22:13:41.791Z,10.05
2019-05-13T22:16:11.893Z,9.93
2019-05-13T22:18:42.494Z,9.86
2019-05-13T22:21:14.164Z,9.87
2019-05-13T22:23:44.734Z,9.79
2019-05-13T22:26:15.318Z,9.83
2019-05-13T22:28:45.896Z,9.84
2019-05-13T22:31:16.472Z,9.78
2019-05-13T22:33:47.157Z,9.87
2019-05-13T22:36:17.740Z,9.88
2019-05-13T22:38:48.339Z,9.80
2019-05-13T22:41:18.922Z,9.83
2019-05-13T22:43:55.514Z,9.82
2019-05-13T22:46:21.955Z,9.86
2019-05-13T22:48:52.506Z,9.77
2019-05-13T22:51:23.289Z,9.77
2019-05-13T22:53:55.053Z,9.84
2019-05-13T22:56:25.732Z,9.78
2019-05-13T22:58:56.337Z,9.75
2019-05-13T23:01:27.020Z,9.55
2019-05-13T23:03:57.704Z,9.54
2019-05-13T23:06:28.490Z,9.48
2019-05-13T23:09:01.584Z,9.38
2019-05-13T23:11:32.207Z,9.45
2019-05-13T23:14:09.690Z,9.47
2019-05-13T23:16:35.446Z,9.41
2019-05-13T23:19:06.218Z,9.50
2019-05-13T23:21:36.818Z,9.56
2019-05-13T23:24:07.595Z,9.53
2019-05-13T23:26:38.208Z,9.51
2019-05-13T23:29:08.858Z,9.60
2019-05-13T23:31:41.494Z,9.57
2019-05-13T23:34:12.177Z,9.42
2019-05-13T23:36:43.031Z,9.43
2019-05-13T23:39:13.686Z,9.32
2019-05-13T23:41:44.266Z,9.29
2019-05-13T23:44:24.781Z,9.39
2019-05-13T23:46:47.433Z,9.37
2019-05-13T23:49:18.005Z,9.40
2019-05-13T23:51:48.583Z,9.23
2019-05-13T23:54:21.161Z,9.35
2019-05-13T23:56:51.418Z,9.42
2019-05-13T23:59:22.018Z,9.51
